sensor_id;sensor_type;location;lat;lon;timestamp;P1;durP1;ratioP1;P2;durP2;ratioP2
51792;SDS011;37850;53.178;6.376;2022-11-15T00:00:16;32.30;;;18.73;;
51792;SDS011;37850;53.178;6.376;2022-11-15T00:02:42;29.95;;;18.45;;
51792;SDS011;37850;53.178;6.376;2022-11-15T00:05:08;30.20;;;18.45;;
51792;SDS011;37850;53.178;6.376;2022-11-15T00:07:33;28.08;;;19.25;;
51792;SDS011;37850;53.178;6.376;2022-11-15T00:09:59;31.55;;;19.55;;
51792;SDS011;37850;53.178;6.376;2022-11-15T00:12:26;31.55;;;19.90;;
51792;SDS011;37850;53.178;6.376;2022-11-15T00:14:53;30.13;;;18.60;;
51792;SDS011;37850;53.178;6.376;2022-11-15T00:17:18;30.42;;;18.80;;
51792;SDS011;37850;53.178;6.376;2022-11-15T00:19:44;31.92;;;18.65;;
51792;SDS011;37850;53.178;6.376;2022-11-15T00:22:10;33.50;;;19.60;;
51792;SDS011;37850;53.178;6.376;2022-11-15T00:24:36;29.40;;;18.90;;
51792;SDS011;37850;53.178;6.376;2022-11-15T00:27:02;32.90;;;18.80;;
51792;SDS011;37850;53.178;6.376;2022-11-15T00:29:27;32.50;;;19.15;;
51792;SDS011;37850;53.178;6.376;2022-11-15T00:31:53;34.28;;;18.95;;
51792;SDS011;37850;53.178;6.376;2022-11-15T00:34:19;29.05;;;18.08;;
51792;SDS011;37850;53.178;6.376;2022-11-15T00:36:44;32.33;;;18.65;;
51792;SDS011;37850;53.178;6.376;2022-11-15T00:39:10;32.63;;;19.25;;
51792;SDS011;37850;53.178;6.376;2022-11-15T00:41:36;30.05;;;19.05;;
51792;SDS011;37850;53.178;6.376;2022-11-15T00:44:01;32.05;;;19.25;;
51792;SDS011;37850;53.178;6.376;2022-11-15T00:46:27;29.77;;;19.40;;
51792;SDS011;37850;53.178;6.376;2022-11-15T00:48:53;31.65;;;20.02;;
51792;SDS011;37850;53.178;6.376;2022-11-15T00:51:18;29.08;;;18.85;;
51792;SDS011;37850;53.178;6.376;2022-11-15T00:53:44;30.27;;;18.90;;
51792;SDS011;37850;53.178;6.376;2022-11-15T00:56:10;32.40;;;19.77;;
51792;SDS011;37850;53.178;6.376;2022-11-15T00:58:35;30.50;;;19.00;;
51792;SDS011;37850;53.178;6.376;2022-11-15T01:01:05;29.08;;;18.73;;
51792;SDS011;37850;53.178;6.376;2022-11-15T01:03:32;29.25;;;18.95;;
51792;SDS011;37850;53.178;6.376;2022-11-15T01:05:59;32.53;;;19.33;;
51792;SDS011;37850;53.178;6.376;2022-11-15T01:08:25;32.65;;;20.33;;
51792;SDS011;37850;53.178;6.376;2022-11-15T01:10:51;29.27;;;19.80;;
51792;SDS011;37850;53.178;6.376;2022-11-15T01:13:17;30.83;;;18.88;;
51792;SDS011;37850;53.178;6.376;2022-11-15T01:15:42;31.60;;;20.45;;
51792;SDS011;37850;53.178;6.376;2022-11-15T01:18:09;31.80;;;19.15;;
51792;SDS011;37850;53.178;6.376;2022-11-15T01:20:38;28.83;;;18.75;;
51792;SDS011;37850;53.178;6.376;2022-11-15T01:23:05;30.08;;;18.40;;
51792;SDS011;37850;53.178;6.376;2022-11-15T01:25:31;34.78;;;21.27;;
51792;SDS011;37850;53.178;6.376;2022-11-15T01:27:57;32.58;;;21.00;;
51792;SDS011;37850;53.178;6.376;2022-11-15T01:30:22;33.90;;;22.20;;
51792;SDS011;37850;53.178;6.376;2022-11-15T01:32:48;30.75;;;20.77;;
51792;SDS011;37850;53.178;6.376;2022-11-15T01:35:14;33.05;;;22.13;;
51792;SDS011;37850;53.178;6.376;2022-11-15T01:37:39;34.70;;;22.77;;
51792;SDS011;37850;53.178;6.376;2022-11-15T01:40:05;33.67;;;22.15;;
51792;SDS011;37850;53.178;6.376;2022-11-15T01:42:31;35.65;;;22.90;;
51792;SDS011;37850;53.178;6.376;2022-11-15T01:44:57;35.00;;;22.30;;
51792;SDS011;37850;53.178;6.376;2022-11-15T01:47:23;32.80;;;22.55;;
51792;SDS011;37850;53.178;6.376;2022-11-15T01:50:03;33.33;;;21.92;;
51792;SDS011;37850;53.178;6.376;2022-11-15T01:52:37;36.17;;;22.95;;
51792;SDS011;37850;53.178;6.376;2022-11-15T01:55:09;35.17;;;22.38;;
51792;SDS011;37850;53.178;6.376;2022-11-15T01:57:46;32.00;;;21.65;;
51792;SDS011;37850;53.178;6.376;2022-11-15T02:00:18;35.40;;;22.48;;
51792;SDS011;37850;53.178;6.376;2022-11-15T02:02:43;38.55;;;22.13;;
51792;SDS011;37850;53.178;6.376;2022-11-15T02:05:09;34.53;;;22.40;;
51792;SDS011;37850;53.178;6.376;2022-11-15T02:07:36;32.47;;;20.63;;
51792;SDS011;37850;53.178;6.376;2022-11-15T02:10:04;35.28;;;20.65;;
51792;SDS011;37850;53.178;6.376;2022-11-15T02:12:36;29.75;;;20.17;;
51792;SDS011;37850;53.178;6.376;2022-11-15T02:15:03;35.65;;;21.88;;
51792;SDS011;37850;53.178;6.376;2022-11-15T02:18:06;32.22;;;20.00;;
51792;SDS011;37850;53.178;6.376;2022-11-15T02:33:53;28.88;;;17.85;;
51792;SDS011;37850;53.178;6.376;2022-11-15T02:36:24;31.45;;;18.90;;
51792;SDS011;37850;53.178;6.376;2022-11-15T02:39:16;35.30;;;19.85;;
51792;SDS011;37850;53.178;6.376;2022-11-15T02:41:57;36.25;;;19.50;;
51792;SDS011;37850;53.178;6.376;2022-11-15T02:44:38;33.25;;;20.80;;
51792;SDS011;37850;53.178;6.376;2022-11-15T02:47:09;34.85;;;19.80;;
51792;SDS011;37850;53.178;6.376;2022-11-15T02:49:47;36.58;;;19.60;;
51792;SDS011;37850;53.178;6.376;2022-11-15T02:52:22;36.47;;;20.48;;
51792;SDS011;37850;53.178;6.376;2022-11-15T02:54:55;37.92;;;21.17;;
51792;SDS011;37850;53.178;6.376;2022-11-15T02:57:36;32.67;;;19.40;;
51792;SDS011;37850;53.178;6.376;2022-11-15T03:00:19;38.08;;;21.35;;
51792;SDS011;37850;53.178;6.376;2022-11-15T03:11:09;33.22;;;20.08;;
51792;SDS011;37850;53.178;6.376;2022-11-15T03:13:47;37.92;;;20.92;;
51792;SDS011;37850;53.178;6.376;2022-11-15T03:16:44;39.13;;;21.30;;
51792;SDS011;37850;53.178;6.376;2022-11-15T03:21:55;41.65;;;21.95;;
51792;SDS011;37850;53.178;6.376;2022-11-15T03:24:25;36.35;;;21.15;;
51792;SDS011;37850;53.178;6.376;2022-11-15T03:26:52;39.00;;;22.42;;
51792;SDS011;37850;53.178;6.376;2022-11-15T03:29:22;38.90;;;21.52;;
51792;SDS011;37850;53.178;6.376;2022-11-15T03:31:54;42.65;;;22.00;;
51792;SDS011;37850;53.178;6.376;2022-11-15T03:34:27;40.30;;;20.65;;
51792;SDS011;37850;53.178;6.376;2022-11-15T03:37:05;41.33;;;21.73;;
51792;SDS011;37850;53.178;6.376;2022-11-15T03:39:33;39.75;;;21.77;;
51792;SDS011;37850;53.178;6.376;2022-11-15T03:44:40;41.47;;;21.58;;
51792;SDS011;37850;53.178;6.376;2022-11-15T03:47:29;43.65;;;21.48;;
51792;SDS011;37850;53.178;6.376;2022-11-15T03:50:06;50.13;;;22.90;;
51792;SDS011;37850;53.178;6.376;2022-11-15T03:52:35;40.05;;;22.38;;
51792;SDS011;37850;53.178;6.376;2022-11-15T03:55:03;41.53;;;21.08;;
51792;SDS011;37850;53.178;6.376;2022-11-15T03:57:30;44.35;;;22.55;;
51792;SDS011;37850;53.178;6.376;2022-11-15T03:59:56;45.60;;;21.20;;
51792;SDS011;37850;53.178;6.376;2022-11-15T04:02:21;40.53;;;21.30;;
51792;SDS011;37850;53.178;6.376;2022-11-15T04:04:47;43.65;;;21.30;;
51792;SDS011;37850;53.178;6.376;2022-11-15T04:07:13;47.42;;;22.48;;
51792;SDS011;37850;53.178;6.376;2022-11-15T04:09:38;48.30;;;21.48;;
51792;SDS011;37850;53.178;6.376;2022-11-15T04:12:23;44.88;;;20.48;;
51792;SDS011;37850;53.178;6.376;2022-11-15T04:15:17;49.97;;;21.63;;
51792;SDS011;37850;53.178;6.376;2022-11-15T04:17:45;43.65;;;22.40;;
51792;SDS011;37850;53.178;6.376;2022-11-15T04:20:17;46.83;;;22.08;;
51792;SDS011;37850;53.178;6.376;2022-11-15T04:23:08;46.67;;;22.70;;
51792;SDS011;37850;53.178;6.376;2022-11-15T04:25:58;51.03;;;22.35;;
51792;SDS011;37850;53.178;6.376;2022-11-15T04:28:26;49.72;;;22.75;;
51792;SDS011;37850;53.178;6.376;2022-11-15T04:30:52;47.35;;;22.85;;
51792;SDS011;37850;53.178;6.376;2022-11-15T04:33:17;49.83;;;22.50;;
51792;SDS011;37850;53.178;6.376;2022-11-15T04:35:43;49.17;;;22.25;;
51792;SDS011;37850;53.178;6.376;2022-11-15T04:38:29;49.03;;;21.33;;
51792;SDS011;37850;53.178;6.376;2022-11-15T04:40:55;49.47;;;23.17;;
51792;SDS011;37850;53.178;6.376;2022-11-15T04:43:21;47.25;;;22.38;;
51792;SDS011;37850;53.178;6.376;2022-11-15T04:45:47;47.50;;;22.88;;
51792;SDS011;37850;53.178;6.376;2022-11-15T04:48:13;48.30;;;22.98;;
51792;SDS011;37850;53.178;6.376;2022-11-15T04:50:38;46.72;;;22.20;;
51792;SDS011;37850;53.178;6.376;2022-11-15T04:53:04;45.90;;;22.65;;
51792;SDS011;37850;53.178;6.376;2022-11-15T04:55:31;47.97;;;21.63;;
51792;SDS011;37850;53.178;6.376;2022-11-15T04:57:57;50.13;;;23.15;;
51792;SDS011;37850;53.178;6.376;2022-11-15T05:00:29;47.90;;;23.53;;
51792;SDS011;37850;53.178;6.376;2022-11-15T05:02:55;45.25;;;21.73;;
51792;SDS011;37850;53.178;6.376;2022-11-15T05:05:40;47.28;;;22.83;;
51792;SDS011;37850;53.178;6.376;2022-11-15T05:08:06;53.50;;;23.20;;
51792;SDS011;37850;53.178;6.376;2022-11-15T05:10:32;55.58;;;24.35;;
51792;SDS011;37850;53.178;6.376;2022-11-15T05:12:58;56.78;;;24.15;;
51792;SDS011;37850;53.178;6.376;2022-11-15T05:15:23;57.67;;;24.83;;
51792;SDS011;37850;53.178;6.376;2022-11-15T05:17:50;59.00;;;24.23;;
51792;SDS011;37850;53.178;6.376;2022-11-15T05:20:15;50.70;;;23.63;;
51792;SDS011;37850;53.178;6.376;2022-11-15T05:22:41;52.03;;;23.83;;
51792;SDS011;37850;53.178;6.376;2022-11-15T05:25:07;55.08;;;25.58;;
51792;SDS011;37850;53.178;6.376;2022-11-15T05:27:33;52.97;;;25.40;;
51792;SDS011;37850;53.178;6.376;2022-11-15T05:30:00;60.55;;;26.25;;
51792;SDS011;37850;53.178;6.376;2022-11-15T05:32:25;58.88;;;27.73;;
51792;SDS011;37850;53.178;6.376;2022-11-15T05:34:52;64.88;;;28.67;;
51792;SDS011;37850;53.178;6.376;2022-11-15T05:37:22;61.13;;;28.05;;
51792;SDS011;37850;53.178;6.376;2022-11-15T05:39:47;62.28;;;25.73;;
51792;SDS011;37850;53.178;6.376;2022-11-15T05:42:14;65.47;;;28.15;;
51792;SDS011;37850;53.178;6.376;2022-11-15T05:44:41;63.45;;;26.73;;
51792;SDS011;37850;53.178;6.376;2022-11-15T05:47:12;70.07;;;29.10;;
51792;SDS011;37850;53.178;6.376;2022-11-15T05:49:42;73.05;;;28.75;;
51792;SDS011;37850;53.178;6.376;2022-11-15T05:52:09;61.92;;;27.38;;
51792;SDS011;37850;53.178;6.376;2022-11-15T05:54:40;68.85;;;29.10;;
51792;SDS011;37850;53.178;6.376;2022-11-15T05:57:06;66.57;;;28.60;;
51792;SDS011;37850;53.178;6.376;2022-11-15T05:59:31;75.35;;;29.90;;
51792;SDS011;37850;53.178;6.376;2022-11-15T06:01:59;73.22;;;30.08;;
51792;SDS011;37850;53.178;6.376;2022-11-15T06:04:25;76.93;;;30.50;;
51792;SDS011;37850;53.178;6.376;2022-11-15T06:06:51;72.53;;;30.20;;
51792;SDS011;37850;53.178;6.376;2022-11-15T06:09:17;76.43;;;30.92;;
51792;SDS011;37850;53.178;6.376;2022-11-15T06:11:42;84.53;;;31.45;;
51792;SDS011;37850;53.178;6.376;2022-11-15T06:14:08;85.05;;;31.15;;
51792;SDS011;37850;53.178;6.376;2022-11-15T06:16:34;79.25;;;33.45;;
51792;SDS011;37850;53.178;6.376;2022-11-15T06:18:59;82.47;;;32.42;;
51792;SDS011;37850;53.178;6.376;2022-11-15T06:21:25;83.88;;;33.30;;
51792;SDS011;37850;53.178;6.376;2022-11-15T06:23:53;90.50;;;34.30;;
51792;SDS011;37850;53.178;6.376;2022-11-15T06:26:19;84.90;;;32.47;;
51792;SDS011;37850;53.178;6.376;2022-11-15T06:28:45;93.70;;;33.35;;
51792;SDS011;37850;53.178;6.376;2022-11-15T06:31:11;86.82;;;33.55;;
51792;SDS011;37850;53.178;6.376;2022-11-15T06:33:37;89.72;;;34.65;;
51792;SDS011;37850;53.178;6.376;2022-11-15T06:36:04;87.78;;;34.65;;
51792;SDS011;37850;53.178;6.376;2022-11-15T06:38:32;80.32;;;32.90;;
51792;SDS011;37850;53.178;6.376;2022-11-15T06:41:05;80.97;;;33.78;;
51792;SDS011;37850;53.178;6.376;2022-11-15T06:43:32;85.50;;;32.95;;
51792;SDS011;37850;53.178;6.376;2022-11-15T06:45:58;86.07;;;33.33;;
51792;SDS011;37850;53.178;6.376;2022-11-15T06:48:25;83.88;;;32.95;;
51792;SDS011;37850;53.178;6.376;2022-11-15T06:50:51;87.22;;;33.88;;
51792;SDS011;37850;53.178;6.376;2022-11-15T06:53:17;82.03;;;35.28;;
51792;SDS011;37850;53.178;6.376;2022-11-15T06:55:43;96.95;;;34.95;;
51792;SDS011;37850;53.178;6.376;2022-11-15T06:58:09;88.88;;;35.13;;
51792;SDS011;37850;53.178;6.376;2022-11-15T07:00:35;76.10;;;32.28;;
51792;SDS011;37850;53.178;6.376;2022-11-15T07:03:00;88.60;;;34.50;;
51792;SDS011;37850;53.178;6.376;2022-11-15T07:05:26;78.30;;;34.67;;
51792;SDS011;37850;53.178;6.376;2022-11-15T07:07:53;90.90;;;36.85;;
51792;SDS011;37850;53.178;6.376;2022-11-15T07:10:20;77.43;;;33.63;;
51792;SDS011;37850;53.178;6.376;2022-11-15T07:12:47;82.70;;;33.92;;
51792;SDS011;37850;53.178;6.376;2022-11-15T07:15:14;86.60;;;35.40;;
51792;SDS011;37850;53.178;6.376;2022-11-15T07:17:40;91.88;;;35.95;;
51792;SDS011;37850;53.178;6.376;2022-11-15T07:20:06;84.80;;;36.00;;
51792;SDS011;37850;53.178;6.376;2022-11-15T07:22:33;93.32;;;35.63;;
51792;SDS011;37850;53.178;6.376;2022-11-15T07:24:58;96.00;;;35.70;;
51792;SDS011;37850;53.178;6.376;2022-11-15T07:27:25;91.95;;;35.08;;
51792;SDS011;37850;53.178;6.376;2022-11-15T07:29:50;86.22;;;34.53;;
51792;SDS011;37850;53.178;6.376;2022-11-15T07:32:16;77.95;;;34.63;;
51792;SDS011;37850;53.178;6.376;2022-11-15T07:34:42;81.70;;;35.10;;
51792;SDS011;37850;53.178;6.376;2022-11-15T07:37:08;85.35;;;35.97;;
51792;SDS011;37850;53.178;6.376;2022-11-15T07:39:33;83.07;;;34.67;;
51792;SDS011;37850;53.178;6.376;2022-11-15T07:41:59;79.95;;;35.85;;
51792;SDS011;37850;53.178;6.376;2022-11-15T07:44:43;84.85;;;35.25;;
51792;SDS011;37850;53.178;6.376;2022-11-15T07:47:09;81.07;;;33.22;;
51792;SDS011;37850;53.178;6.376;2022-11-15T07:49:35;84.35;;;34.42;;
51792;SDS011;37850;53.178;6.376;2022-11-15T07:52:00;77.35;;;35.05;;
51792;SDS011;37850;53.178;6.376;2022-11-15T07:54:26;75.75;;;31.85;;
51792;SDS011;37850;53.178;6.376;2022-11-15T07:56:52;78.82;;;34.00;;
51792;SDS011;37850;53.178;6.376;2022-11-15T07:59:17;77.38;;;34.42;;
51792;SDS011;37850;53.178;6.376;2022-11-15T08:01:44;71.78;;;33.28;;
51792;SDS011;37850;53.178;6.376;2022-11-15T08:04:10;72.72;;;34.03;;
51792;SDS011;37850;53.178;6.376;2022-11-15T08:06:36;67.32;;;34.70;;
51792;SDS011;37850;53.178;6.376;2022-11-15T08:09:02;62.83;;;32.58;;
51792;SDS011;37850;53.178;6.376;2022-11-15T08:11:28;63.60;;;33.15;;
51792;SDS011;37850;53.178;6.376;2022-11-15T08:13:54;69.28;;;33.33;;
51792;SDS011;37850;53.178;6.376;2022-11-15T08:16:20;70.32;;;33.47;;
51792;SDS011;37850;53.178;6.376;2022-11-15T08:18:45;68.13;;;32.25;;
51792;SDS011;37850;53.178;6.376;2022-11-15T08:21:13;68.28;;;32.63;;
51792;SDS011;37850;53.178;6.376;2022-11-15T08:23:43;68.50;;;33.08;;
51792;SDS011;37850;53.178;6.376;2022-11-15T08:26:09;66.05;;;31.35;;
51792;SDS011;37850;53.178;6.376;2022-11-15T08:28:34;65.20;;;30.88;;
51792;SDS011;37850;53.178;6.376;2022-11-15T08:31:00;65.68;;;31.00;;
51792;SDS011;37850;53.178;6.376;2022-11-15T08:33:27;67.40;;;31.48;;
51792;SDS011;37850;53.178;6.376;2022-11-15T08:35:55;66.38;;;31.52;;
51792;SDS011;37850;53.178;6.376;2022-11-15T08:38:21;57.92;;;31.92;;
51792;SDS011;37850;53.178;6.376;2022-11-15T08:40:47;60.72;;;32.13;;
51792;SDS011;37850;53.178;6.376;2022-11-15T08:43:13;59.20;;;30.33;;
51792;SDS011;37850;53.178;6.376;2022-11-15T08:45:39;54.28;;;31.15;;
51792;SDS011;37850;53.178;6.376;2022-11-15T08:48:04;49.55;;;29.52;;
51792;SDS011;37850;53.178;6.376;2022-11-15T08:50:31;54.85;;;28.92;;
51792;SDS011;37850;53.178;6.376;2022-11-15T08:52:57;55.08;;;29.42;;
51792;SDS011;37850;53.178;6.376;2022-11-15T08:55:22;53.00;;;29.13;;
51792;SDS011;37850;53.178;6.376;2022-11-15T08:57:48;58.65;;;29.67;;
51792;SDS011;37850;53.178;6.376;2022-11-15T09:00:14;57.90;;;29.70;;
51792;SDS011;37850;53.178;6.376;2022-11-15T09:02:40;51.70;;;28.83;;
51792;SDS011;37850;53.178;6.376;2022-11-15T09:05:06;52.28;;;27.13;;
51792;SDS011;37850;53.178;6.376;2022-11-15T09:07:32;46.50;;;26.98;;
51792;SDS011;37850;53.178;6.376;2022-11-15T09:09:58;45.20;;;25.60;;
51792;SDS011;37850;53.178;6.376;2022-11-15T09:12:24;47.35;;;26.30;;
51792;SDS011;37850;53.178;6.376;2022-11-15T09:14:50;47.05;;;27.88;;
51792;SDS011;37850;53.178;6.376;2022-11-15T09:17:16;41.50;;;25.73;;
51792;SDS011;37850;53.178;6.376;2022-11-15T09:19:42;42.67;;;25.77;;
51792;SDS011;37850;53.178;6.376;2022-11-15T09:22:08;44.88;;;25.98;;
51792;SDS011;37850;53.178;6.376;2022-11-15T09:24:34;46.20;;;25.58;;
51792;SDS011;37850;53.178;6.376;2022-11-15T09:27:00;44.00;;;25.33;;
51792;SDS011;37850;53.178;6.376;2022-11-15T09:29:26;43.83;;;25.70;;
51792;SDS011;37850;53.178;6.376;2022-11-15T09:31:52;42.53;;;26.73;;
51792;SDS011;37850;53.178;6.376;2022-11-15T09:34:18;41.42;;;24.48;;
51792;SDS011;37850;53.178;6.376;2022-11-15T09:36:44;42.05;;;24.33;;
51792;SDS011;37850;53.178;6.376;2022-11-15T09:39:09;37.15;;;23.48;;
51792;SDS011;37850;53.178;6.376;2022-11-15T09:49:28;44.95;;;23.42;;
51792;SDS011;37850;53.178;6.376;2022-11-15T09:51:56;37.35;;;22.73;;
51792;SDS011;37850;53.178;6.376;2022-11-15T09:57:04;34.00;;;22.65;;
51792;SDS011;37850;53.178;6.376;2022-11-15T10:02:40;33.13;;;21.63;;
51792;SDS011;37850;53.178;6.376;2022-11-15T10:05:18;33.92;;;21.40;;
51792;SDS011;37850;53.178;6.376;2022-11-15T10:07:57;38.53;;;20.88;;
51792;SDS011;37850;53.178;6.376;2022-11-15T10:13:16;30.57;;;21.00;;
51792;SDS011;37850;53.178;6.376;2022-11-15T10:15:49;36.33;;;20.42;;
51792;SDS011;37850;53.178;6.376;2022-11-15T10:19:21;38.28;;;21.10;;
51792;SDS011;37850;53.178;6.376;2022-11-15T10:21:23;35.20;;;20.73;;
51792;SDS011;37850;53.178;6.376;2022-11-15T10:23:57;34.35;;;20.23;;
51792;SDS011;37850;53.178;6.376;2022-11-15T10:26:23;31.98;;;19.45;;
51792;SDS011;37850;53.178;6.376;2022-11-15T10:28:49;33.83;;;19.90;;
51792;SDS011;37850;53.178;6.376;2022-11-15T10:31:26;32.42;;;19.88;;
51792;SDS011;37850;53.178;6.376;2022-11-15T10:34:05;31.60;;;18.63;;
51792;SDS011;37850;53.178;6.376;2022-11-15T10:36:36;29.73;;;18.73;;
51792;SDS011;37850;53.178;6.376;2022-11-15T10:39:02;33.63;;;18.50;;
51792;SDS011;37850;53.178;6.376;2022-11-15T10:41:29;30.50;;;18.98;;
51792;SDS011;37850;53.178;6.376;2022-11-15T10:44:17;31.40;;;18.65;;
51792;SDS011;37850;53.178;6.376;2022-11-15T10:46:46;26.70;;;17.05;;
51792;SDS011;37850;53.178;6.376;2022-11-15T10:49:20;26.73;;;16.65;;
51792;SDS011;37850;53.178;6.376;2022-11-15T10:51:53;26.33;;;17.27;;
51792;SDS011;37850;53.178;6.376;2022-11-15T10:54:47;25.88;;;17.23;;
51792;SDS011;37850;53.178;6.376;2022-11-15T10:57:16;24.90;;;16.38;;
51792;SDS011;37850;53.178;6.376;2022-11-15T10:59:48;26.90;;;16.45;;
51792;SDS011;37850;53.178;6.376;2022-11-15T11:02:32;27.33;;;16.58;;
51792;SDS011;37850;53.178;6.376;2022-11-15T11:05:01;23.23;;;15.55;;
51792;SDS011;37850;53.178;6.376;2022-11-15T11:07:31;23.10;;;15.48;;
51792;SDS011;37850;53.178;6.376;2022-11-15T11:10:02;24.40;;;14.93;;
51792;SDS011;37850;53.178;6.376;2022-11-15T11:12:31;26.23;;;14.30;;
51792;SDS011;37850;53.178;6.376;2022-11-15T11:14:59;21.70;;;14.32;;
51792;SDS011;37850;53.178;6.376;2022-11-15T11:17:32;18.70;;;12.98;;
51792;SDS011;37850;53.178;6.376;2022-11-15T11:20:21;21.08;;;12.77;;
51792;SDS011;37850;53.178;6.376;2022-11-15T11:23:01;18.95;;;12.13;;
51792;SDS011;37850;53.178;6.376;2022-11-15T11:25:47;19.15;;;11.88;;
51792;SDS011;37850;53.178;6.376;2022-11-15T11:28:26;18.88;;;11.55;;
51792;SDS011;37850;53.178;6.376;2022-11-15T11:31:17;20.27;;;11.77;;
51792;SDS011;37850;53.178;6.376;2022-11-15T11:36:36;19.10;;;10.45;;
51792;SDS011;37850;53.178;6.376;2022-11-15T11:39:35;19.80;;;11.30;;
51792;SDS011;37850;53.178;6.376;2022-11-15T11:47:51;13.57;;;9.00;;
51792;SDS011;37850;53.178;6.376;2022-11-15T11:50:29;14.27;;;8.73;;
51792;SDS011;37850;53.178;6.376;2022-11-15T11:52:58;16.20;;;8.35;;
51792;SDS011;37850;53.178;6.376;2022-11-15T11:55:37;16.55;;;8.07;;
51792;SDS011;37850;53.178;6.376;2022-11-15T12:01:15;11.95;;;6.00;;
51792;SDS011;37850;53.178;6.376;2022-11-15T12:04:00;10.95;;;5.05;;
51792;SDS011;37850;53.178;6.376;2022-11-15T12:06:38;12.13;;;4.72;;
51792;SDS011;37850;53.178;6.376;2022-11-15T12:09:12;12.27;;;4.53;;
51792;SDS011;37850;53.178;6.376;2022-11-15T12:17:32;10.13;;;3.38;;
51792;SDS011;37850;53.178;6.376;2022-11-15T12:20:05;12.32;;;3.33;;
51792;SDS011;37850;53.178;6.376;2022-11-15T12:25:19;11.25;;;3.00;;
51792;SDS011;37850;53.178;6.376;2022-11-15T12:27:58;6.40;;;2.47;;
51792;SDS011;37850;53.178;6.376;2022-11-15T12:30:44;10.55;;;2.60;;
51792;SDS011;37850;53.178;6.376;2022-11-15T12:36:02;6.88;;;2.53;;
51792;SDS011;37850;53.178;6.376;2022-11-15T12:41:31;10.63;;;2.95;;
51792;SDS011;37850;53.178;6.376;2022-11-15T12:43:58;7.07;;;2.70;;
51792;SDS011;37850;53.178;6.376;2022-11-15T12:48:55;8.57;;;2.95;;
51792;SDS011;37850;53.178;6.376;2022-11-15T13:02:34;12.75;;;3.28;;
51792;SDS011;37850;53.178;6.376;2022-11-15T13:17:43;7.78;;;2.72;;
51792;SDS011;37850;53.178;6.376;2022-11-15T13:30:36;8.07;;;2.70;;
51792;SDS011;37850;53.178;6.376;2022-11-15T13:33:45;7.65;;;2.72;;
51792;SDS011;37850;53.178;6.376;2022-11-15T13:36:12;8.68;;;3.03;;
51792;SDS011;37850;53.178;6.376;2022-11-15T13:38:59;8.55;;;2.70;;
51792;SDS011;37850;53.178;6.376;2022-11-15T13:41:30;6.88;;;2.58;;
51792;SDS011;37850;53.178;6.376;2022-11-15T13:43:57;9.60;;;2.72;;
51792;SDS011;37850;53.178;6.376;2022-11-15T13:46:28;8.32;;;2.75;;
51792;SDS011;37850;53.178;6.376;2022-11-15T13:49:04;8.13;;;2.78;;
51792;SDS011;37850;53.178;6.376;2022-11-15T13:51:43;8.27;;;2.78;;
51792;SDS011;37850;53.178;6.376;2022-11-15T13:54:20;7.35;;;2.70;;
51792;SDS011;37850;53.178;6.376;2022-11-15T13:57:19;7.57;;;2.88;;
51792;SDS011;37850;53.178;6.376;2022-11-15T13:59:54;9.70;;;3.33;;
51792;SDS011;37850;53.178;6.376;2022-11-15T14:02:29;10.10;;;3.50;;
51792;SDS011;37850;53.178;6.376;2022-11-15T14:05:11;8.05;;;3.40;;
51792;SDS011;37850;53.178;6.376;2022-11-15T14:07:44;8.48;;;2.85;;
51792;SDS011;37850;53.178;6.376;2022-11-15T14:12:54;7.63;;;2.30;;
51792;SDS011;37850;53.178;6.376;2022-11-15T14:15:28;6.47;;;2.38;;
51792;SDS011;37850;53.178;6.376;2022-11-15T14:17:59;7.03;;;2.65;;
51792;SDS011;37850;53.178;6.376;2022-11-15T14:20:26;5.00;;;2.25;;
51792;SDS011;37850;53.178;6.376;2022-11-15T14:22:57;5.78;;;1.98;;
51792;SDS011;37850;53.178;6.376;2022-11-15T14:25:30;5.75;;;2.03;;
51792;SDS011;37850;53.178;6.376;2022-11-15T14:30:55;6.88;;;2.20;;
51792;SDS011;37850;53.178;6.376;2022-11-15T14:33:36;9.95;;;2.22;;
51792;SDS011;37850;53.178;6.376;2022-11-15T14:36:10;5.75;;;2.00;;
51792;SDS011;37850;53.178;6.376;2022-11-15T14:38:36;5.13;;;1.60;;
51792;SDS011;37850;53.178;6.376;2022-11-15T14:41:02;6.07;;;1.90;;
51792;SDS011;37850;53.178;6.376;2022-11-15T14:43:28;5.97;;;1.55;;
51792;SDS011;37850;53.178;6.376;2022-11-15T14:45:53;4.35;;;1.58;;
51792;SDS011;37850;53.178;6.376;2022-11-15T14:48:20;5.25;;;1.67;;
51792;SDS011;37850;53.178;6.376;2022-11-15T14:50:47;4.90;;;1.40;;
51792;SDS011;37850;53.178;6.376;2022-11-15T14:53:16;4.80;;;1.75;;
51792;SDS011;37850;53.178;6.376;2022-11-15T14:55:43;8.15;;;1.70;;
51792;SDS011;37850;53.178;6.376;2022-11-15T14:58:09;6.90;;;1.63;;
51792;SDS011;37850;53.178;6.376;2022-11-15T15:00:39;5.55;;;1.58;;
51792;SDS011;37850;53.178;6.376;2022-11-15T15:03:06;6.05;;;1.40;;
51792;SDS011;37850;53.178;6.376;2022-11-15T15:07:58;6.90;;;1.30;;
51792;SDS011;37850;53.178;6.376;2022-11-15T15:10:27;5.63;;;2.15;;
51792;SDS011;37850;53.178;6.376;2022-11-15T15:13:08;4.57;;;1.60;;
51792;SDS011;37850;53.178;6.376;2022-11-15T15:15:45;4.28;;;1.15;;
51792;SDS011;37850;53.178;6.376;2022-11-15T15:18:11;5.57;;;1.70;;
51792;SDS011;37850;53.178;6.376;2022-11-15T15:20:38;5.55;;;1.10;;
51792;SDS011;37850;53.178;6.376;2022-11-15T15:23:08;5.57;;;1.20;;
51792;SDS011;37850;53.178;6.376;2022-11-15T15:25:40;4.20;;;1.58;;
51792;SDS011;37850;53.178;6.376;2022-11-15T15:28:07;4.35;;;1.25;;
51792;SDS011;37850;53.178;6.376;2022-11-15T15:30:32;8.75;;;1.80;;
51792;SDS011;37850;53.178;6.376;2022-11-15T15:32:58;5.20;;;1.38;;
51792;SDS011;37850;53.178;6.376;2022-11-15T15:35:28;2.85;;;1.30;;
51792;SDS011;37850;53.178;6.376;2022-11-15T15:37:55;6.55;;;1.80;;
51792;SDS011;37850;53.178;6.376;2022-11-15T15:40:22;4.78;;;1.40;;
51792;SDS011;37850;53.178;6.376;2022-11-15T15:42:48;3.90;;;1.48;;
51792;SDS011;37850;53.178;6.376;2022-11-15T15:45:15;4.53;;;1.52;;
51792;SDS011;37850;53.178;6.376;2022-11-15T15:47:42;7.40;;;2.22;;
51792;SDS011;37850;53.178;6.376;2022-11-15T15:50:20;6.32;;;2.40;;
51792;SDS011;37850;53.178;6.376;2022-11-15T15:52:50;6.93;;;2.80;;
51792;SDS011;37850;53.178;6.376;2022-11-15T15:55:17;11.50;;;4.40;;
51792;SDS011;37850;53.178;6.376;2022-11-15T15:57:43;7.40;;;3.22;;
51792;SDS011;37850;53.178;6.376;2022-11-15T16:00:09;9.27;;;4.28;;
51792;SDS011;37850;53.178;6.376;2022-11-15T16:02:36;7.40;;;3.40;;
51792;SDS011;37850;53.178;6.376;2022-11-15T16:05:01;7.97;;;3.20;;
51792;SDS011;37850;53.178;6.376;2022-11-15T16:07:27;5.07;;;2.30;;
51792;SDS011;37850;53.178;6.376;2022-11-15T16:09:54;5.93;;;2.75;;
51792;SDS011;37850;53.178;6.376;2022-11-15T16:12:27;12.38;;;4.05;;
51792;SDS011;37850;53.178;6.376;2022-11-15T16:14:57;8.02;;;3.42;;
51792;SDS011;37850;53.178;6.376;2022-11-15T16:17:25;6.28;;;3.63;;
51792;SDS011;37850;53.178;6.376;2022-11-15T16:19:52;8.18;;;3.38;;
51792;SDS011;37850;53.178;6.376;2022-11-15T16:22:18;9.30;;;3.50;;
51792;SDS011;37850;53.178;6.376;2022-11-15T16:24:43;6.38;;;3.90;;
51792;SDS011;37850;53.178;6.376;2022-11-15T16:27:13;10.07;;;4.60;;
51792;SDS011;37850;53.178;6.376;2022-11-15T16:29:43;8.13;;;4.15;;
51792;SDS011;37850;53.178;6.376;2022-11-15T16:32:09;11.52;;;4.78;;
51792;SDS011;37850;53.178;6.376;2022-11-15T16:34:35;7.85;;;4.20;;
51792;SDS011;37850;53.178;6.376;2022-11-15T16:37:01;7.43;;;3.97;;